sensor_id;sensor_type;location;lat;lon;timestamp;pressure;altitude;pressure_sealevel;temperature;humidity
39243;BME280;29823;47.404;8.566;2023-04-26T00:01:09;96486.38;;;6.14;100.00
39243;BME280;29823;47.404;8.566;2023-04-26T00:03:36;96482.50;;;6.10;100.00
39243;BME280;29823;47.404;8.566;2023-04-26T00:06:06;96501.72;;;6.12;100.00
39243;BME280;29823;47.404;8.566;2023-04-26T00:08:35;96463.13;;;6.03;100.00
39243;BME280;29823;47.404;8.566;2023-04-26T00:11:13;96432.69;;;5.80;100.00
39243;BME280;29823;47.404;8.566;2023-04-26T00:17:19;96502.31;;;6.34;100.00
39243;BME280;29823;47.404;8.566;2023-04-26T00:19:47;96494.97;;;6.29;100.00
39243;BME280;29823;47.404;8.566;2023-04-26T00:22:15;96497.81;;;6.47;100.00
39243;BME280;29823;47.404;8.566;2023-04-26T00:24:43;96484.34;;;6.29;100.00
39243;BME280;29823;47.404;8.566;2023-04-26T00:27:11;96455.34;;;6.08;100.00
39243;BME280;29823;47.404;8.566;2023-04-26T00:29:39;96498.22;;;6.44;100.00
39243;BME280;29823;47.404;8.566;2023-04-26T00:32:06;96486.34;;;6.66;100.00
39243;BME280;29823;47.404;8.566;2023-04-26T00:34:36;96479.84;;;6.49;100.00
39243;BME280;29823;47.404;8.566;2023-04-26T00:37:04;96506.38;;;6.62;100.00
39243;BME280;29823;47.404;8.566;2023-04-26T00:39:32;96507.56;;;6.73;100.00
39243;BME280;29823;47.404;8.566;2023-04-26T00:42:00;96492.06;;;6.63;100.00
39243;BME280;29823;47.404;8.566;2023-04-26T00:44:28;96481.03;;;6.66;100.00
39243;BME280;29823;47.404;8.566;2023-04-26T00:46:56;96494.91;;;6.68;100.00
39243;BME280;29823;47.404;8.566;2023-04-26T00:49:24;96493.47;;;6.72;100.00
39243;BME280;29823;47.404;8.566;2023-04-26T00:51:54;96489.56;;;6.81;100.00
39243;BME280;29823;47.404;8.566;2023-04-26T00:54:22;96484.69;;;6.72;100.00
39243;BME280;29823;47.404;8.566;2023-04-26T00:56:51;96508.00;;;6.63;100.00
39243;BME280;29823;47.404;8.566;2023-04-26T00:59:19;96448.59;;;6.25;100.00
39243;BME280;29823;47.404;8.566;2023-04-26T01:01:47;96463.72;;;6.31;100.00
39243;BME280;29823;47.404;8.566;2023-04-26T01:04:17;96471.44;;;6.46;100.00
39243;BME280;29823;47.404;8.566;2023-04-26T01:06:45;96492.25;;;6.75;100.00
39243;BME280;29823;47.404;8.566;2023-04-26T01:09:14;96498.34;;;6.82;100.00
39243;BME280;29823;47.404;8.566;2023-04-26T01:11:45;96478.56;;;6.65;100.00
39243;BME280;29823;47.404;8.566;2023-04-26T01:14:14;96496.53;;;6.82;100.00
39243;BME280;29823;47.404;8.566;2023-04-26T01:16:42;96475.69;;;6.73;100.00
39243;BME280;29823;47.404;8.566;2023-04-26T01:19:12;96468.75;;;6.65;100.00
39243;BME280;29823;47.404;8.566;2023-04-26T01:21:41;96482.84;;;6.72;100.00
39243;BME280;29823;47.404;8.566;2023-04-26T01:24:11;96457.38;;;6.45;100.00
39243;BME280;29823;47.404;8.566;2023-04-26T01:26:40;96476.94;;;6.51;100.00
39243;BME280;29823;47.404;8.566;2023-04-26T01:29:15;96482.84;;;6.72;100.00
39243;BME280;29823;47.404;8.566;2023-04-26T01:31:43;96480.78;;;6.74;100.00
39243;BME280;29823;47.404;8.566;2023-04-26T01:34:11;96468.75;;;6.65;100.00
39243;BME280;29823;47.404;8.566;2023-04-26T01:36:39;96463.28;;;6.47;100.00
39243;BME280;29823;47.404;8.566;2023-04-26T01:39:08;96489.44;;;6.50;100.00
39243;BME280;29823;47.404;8.566;2023-04-26T01:41:37;96473.72;;;6.29;100.00
39243;BME280;29823;47.404;8.566;2023-04-26T01:44:05;96474.94;;;6.20;100.00
39243;BME280;29823;47.404;8.566;2023-04-26T01:46:33;96487.41;;;6.26;100.00
39243;BME280;29823;47.404;8.566;2023-04-26T01:49:01;96490.06;;;6.13;100.00
39243;BME280;29823;47.404;8.566;2023-04-26T01:51:29;96483.94;;;6.00;100.00
39243;BME280;29823;47.404;8.566;2023-04-26T01:53:58;96467.59;;;5.90;100.00
39243;BME280;29823;47.404;8.566;2023-04-26T01:56:26;96452.28;;;5.92;100.00
39243;BME280;29823;47.404;8.566;2023-04-26T01:58:57;96459.22;;;5.86;100.00
39243;BME280;29823;47.404;8.566;2023-04-26T02:01:25;96465.97;;;5.82;100.00
39243;BME280;29823;47.404;8.566;2023-04-26T02:03:53;96476.78;;;5.87;100.00
39243;BME280;29823;47.404;8.566;2023-04-26T02:06:21;96457.75;;;5.77;100.00
39243;BME280;29823;47.404;8.566;2023-04-26T02:08:49;96468.59;;;5.69;100.00
39243;BME280;29823;47.404;8.566;2023-04-26T02:11:17;96462.22;;;5.57;100.00
39243;BME280;29823;47.404;8.566;2023-04-26T02:13:45;96481.03;;;5.75;100.00
39243;BME280;29823;47.404;8.566;2023-04-26T02:16:14;96414.09;;;5.47;100.00
39243;BME280;29823;47.404;8.566;2023-04-26T02:18:42;96466.09;;;5.61;100.00
39243;BME280;29823;47.404;8.566;2023-04-26T02:21:11;96470.41;;;5.69;100.00
39243;BME280;29823;47.404;8.566;2023-04-26T02:23:38;96431.41;;;5.43;100.00
39243;BME280;29823;47.404;8.566;2023-04-26T02:26:06;96437.53;;;5.50;100.00
39243;BME280;29823;47.404;8.566;2023-04-26T02:28:34;96454.88;;;5.53;100.00
39243;BME280;29823;47.404;8.566;2023-04-26T02:31:02;96451.00;;;5.42;100.00
39243;BME280;29823;47.404;8.566;2023-04-26T02:33:32;96447.69;;;5.40;100.00
39243;BME280;29823;47.404;8.566;2023-04-26T02:36:02;96454.63;;;5.41;100.00
39243;BME280;29823;47.404;8.566;2023-04-26T02:38:32;96454.47;;;5.49;100.00
39243;BME280;29823;47.404;8.566;2023-04-26T02:41:00;96451.22;;;5.47;100.00
39243;BME280;29823;47.404;8.566;2023-04-26T02:43:28;96463.03;;;5.51;100.00
39243;BME280;29823;47.404;8.566;2023-04-26T02:45:56;96363.00;;;4.93;100.00
39243;BME280;29823;47.404;8.566;2023-04-26T02:48:26;96445.88;;;5.41;100.00
39243;BME280;29823;47.404;8.566;2023-04-26T02:50:55;96453.22;;;5.45;100.00
39243;BME280;29823;47.404;8.566;2023-04-26T02:53:23;96360.34;;;4.87;100.00
39243;BME280;29823;47.404;8.566;2023-04-26T02:55:51;96465.88;;;5.43;100.00
39243;BME280;29823;47.404;8.566;2023-04-26T02:58:19;96470.34;;;5.36;100.00
39243;BME280;29823;47.404;8.566;2023-04-26T03:00:47;96439.91;;;5.19;100.00
39243;BME280;29823;47.404;8.566;2023-04-26T03:03:15;96467.69;;;5.36;100.00
39243;BME280;29823;47.404;8.566;2023-04-26T03:05:43;96467.47;;;5.38;100.00
39243;BME280;29823;47.404;8.566;2023-04-26T03:08:13;96461.59;;;5.49;100.00
39243;BME280;29823;47.404;8.566;2023-04-26T03:10:44;96468.16;;;5.59;100.00
39243;BME280;29823;47.404;8.566;2023-04-26T03:13:12;96461.81;;;5.60;100.00
39243;BME280;29823;47.404;8.566;2023-04-26T03:15:43;96451.22;;;5.67;100.00
39243;BME280;29823;47.404;8.566;2023-04-26T03:18:11;96456.78;;;5.85;100.00
39243;BME280;29823;47.404;8.566;2023-04-26T03:20:40;96461.88;;;5.86;100.00
39243;BME280;29823;47.404;8.566;2023-04-26T03:23:08;96448.22;;;5.83;100.00
39243;BME280;29823;47.404;8.566;2023-04-26T03:25:37;96461.25;;;5.84;100.00
39243;BME280;29823;47.404;8.566;2023-04-26T03:28:05;96469.63;;;5.94;100.00
39243;BME280;29823;47.404;8.566;2023-04-26T03:30:33;96457.53;;;5.72;100.00
39243;BME280;29823;47.404;8.566;2023-04-26T03:33:00;96453.31;;;5.91;100.00
39243;BME280;29823;47.404;8.566;2023-04-26T03:35:28;96444.75;;;6.02;100.00
39243;BME280;29823;47.404;8.566;2023-04-26T03:37:56;96466.56;;;6.10;100.00
39243;BME280;29823;47.404;8.566;2023-04-26T03:40:24;96474.53;;;6.10;100.00
39243;BME280;29823;47.404;8.566;2023-04-26T03:42:53;96472.31;;;6.07;100.00
39243;BME280;29823;47.404;8.566;2023-04-26T03:45:21;96462.72;;;6.00;100.00
39243;BME280;29823;47.404;8.566;2023-04-26T03:47:50;96467.41;;;5.91;100.00
39243;BME280;29823;47.404;8.566;2023-04-26T03:50:18;96432.88;;;5.65;100.00
39243;BME280;29823;47.404;8.566;2023-04-26T03:52:46;96475.56;;;5.96;100.00
39243;BME280;29823;47.404;8.566;2023-04-26T03:55:13;96456.16;;;5.89;100.00
39243;BME280;29823;47.404;8.566;2023-04-26T03:57:41;96432.44;;;5.75;100.00
39243;BME280;29823;47.404;8.566;2023-04-26T04:00:12;96451.88;;;5.88;100.00
39243;BME280;29823;47.404;8.566;2023-04-26T04:02:40;96443.91;;;5.75;100.00
39243;BME280;29823;47.404;8.566;2023-04-26T04:05:09;96446.50;;;5.62;100.00
39243;BME280;29823;47.404;8.566;2023-04-26T04:07:37;96455.91;;;5.58;100.00
39243;BME280;29823;47.404;8.566;2023-04-26T04:10:05;96448.38;;;5.62;100.00
39243;BME280;29823;47.404;8.566;2023-04-26T04:12:35;96438.16;;;5.59;100.00
39243;BME280;29823;47.404;8.566;2023-04-26T04:15:03;96452.44;;;5.58;100.00
39243;BME280;29823;47.404;8.566;2023-04-26T04:17:33;96449.59;;;5.72;100.00
39243;BME280;29823;47.404;8.566;2023-04-26T04:20:04;96453.66;;;5.55;100.00
39243;BME280;29823;47.404;8.566;2023-04-26T04:22:33;96449.38;;;5.61;100.00
39243;BME280;29823;47.404;8.566;2023-04-26T04:25:01;96459.38;;;5.65;100.00
39243;BME280;29823;47.404;8.566;2023-04-26T04:27:30;96461.44;;;5.76;100.00
39243;BME280;29823;47.404;8.566;2023-04-26T04:29:57;96448.56;;;5.73;100.00
39243;BME280;29823;47.404;8.566;2023-04-26T04:32:29;96458.16;;;5.68;100.00
39243;BME280;29823;47.404;8.566;2023-04-26T04:34:59;96448.78;;;5.52;100.00
39243;BME280;29823;47.404;8.566;2023-04-26T04:37:27;96455.50;;;5.61;100.00
39243;BME280;29823;47.404;8.566;2023-04-26T04:39:58;96432.44;;;5.42;100.00
39243;BME280;29823;47.404;8.566;2023-04-26T04:42:26;96432.63;;;5.54;100.00
39243;BME280;29823;47.404;8.566;2023-04-26T04:44:55;96460.19;;;5.72;100.00
39243;BME280;29823;47.404;8.566;2023-04-26T04:47:25;96460.41;;;5.77;100.00
39243;BME280;29823;47.404;8.566;2023-04-26T04:49:52;96442.25;;;5.68;100.00
39243;BME280;29823;47.404;8.566;2023-04-26T04:52:21;96456.59;;;6.06;100.00
39243;BME280;29823;47.404;8.566;2023-04-26T04:54:49;96462.72;;;6.26;100.00
39243;BME280;29823;47.404;8.566;2023-04-26T04:57:17;96453.72;;;6.27;100.00
39243;BME280;29823;47.404;8.566;2023-04-26T04:59:45;96474.09;;;6.46;100.00
39243;BME280;29823;47.404;8.566;2023-04-26T05:02:13;96448.38;;;6.46;100.00
39243;BME280;29823;47.404;8.566;2023-04-26T05:04:41;96462.25;;;6.61;100.00
39243;BME280;29823;47.404;8.566;2023-04-26T05:07:09;96471.00;;;6.68;100.00
39243;BME280;29823;47.404;8.566;2023-04-26T05:09:39;96436.91;;;6.52;100.00
39243;BME280;29823;47.404;8.566;2023-04-26T05:12:07;96469.13;;;6.75;100.00
39243;BME280;29823;47.404;8.566;2023-04-26T05:14:35;96464.06;;;6.74;100.00
39243;BME280;29823;47.404;8.566;2023-04-26T05:17:03;96462.63;;;6.71;100.00
39243;BME280;29823;47.404;8.566;2023-04-26T05:19:31;96483.44;;;6.81;100.00
39243;BME280;29823;47.404;8.566;2023-04-26T05:21:58;96472.38;;;6.84;100.00
39243;BME280;29823;47.404;8.566;2023-04-26T05:24:28;96473.16;;;6.97;100.00
39243;BME280;29823;47.404;8.566;2023-04-26T05:26:58;96472.63;;;6.82;100.00
39243;BME280;29823;47.404;8.566;2023-04-26T05:29:28;96486.31;;;6.79;100.00
39243;BME280;29823;47.404;8.566;2023-04-26T05:31:56;96482.59;;;6.93;100.00
39243;BME280;29823;47.404;8.566;2023-04-26T05:34:24;96475.59;;;7.05;100.00
39243;BME280;29823;47.404;8.566;2023-04-26T05:36:52;96482.16;;;6.96;100.00
39243;BME280;29823;47.404;8.566;2023-04-26T05:39:20;96479.69;;;7.01;100.00
39243;BME280;29823;47.404;8.566;2023-04-26T05:41:48;96466.91;;;6.72;100.00
39243;BME280;29823;47.404;8.566;2023-04-26T05:44:17;96476.84;;;6.96;100.00
39243;BME280;29823;47.404;8.566;2023-04-26T05:46:45;96469.53;;;6.79;100.00
39243;BME280;29823;47.404;8.566;2023-04-26T05:49:13;96451.31;;;6.89;100.00
39243;BME280;29823;47.404;8.566;2023-04-26T05:51:41;96485.19;;;7.06;100.00
39243;BME280;29823;47.404;8.566;2023-04-26T05:54:09;96483.50;;;7.25;100.00
39243;BME280;29823;47.404;8.566;2023-04-26T05:56:37;96481.00;;;7.36;100.00
39243;BME280;29823;47.404;8.566;2023-04-26T05:59:04;96486.91;;;7.38;100.00
39243;BME280;29823;47.404;8.566;2023-04-26T06:01:34;96483.78;;;7.48;100.00
39243;BME280;29823;47.404;8.566;2023-04-26T06:04:01;96483.56;;;7.49;100.00
39243;BME280;29823;47.404;8.566;2023-04-26T06:06:30;96492.59;;;7.48;100.00
39243;BME280;29823;47.404;8.566;2023-04-26T06:08:58;96480.53;;;7.46;100.00
39243;BME280;29823;47.404;8.566;2023-04-26T06:11:26;96494.25;;;7.43;100.00
39243;BME280;29823;47.404;8.566;2023-04-26T06:13:54;96485.56;;;7.60;100.00
39243;BME280;29823;47.404;8.566;2023-04-26T06:16:22;96500.16;;;7.82;100.00
39243;BME280;29823;47.404;8.566;2023-04-26T06:18:51;96495.56;;;7.96;100.00
39243;BME280;29823;47.404;8.566;2023-04-26T06:21:19;96502.25;;;7.74;100.00
39243;BME280;29823;47.404;8.566;2023-04-26T06:23:47;96478.34;;;7.98;100.00
39243;BME280;29823;47.404;8.566;2023-04-26T06:26:14;96497.25;;;8.21;100.00
39243;BME280;29823;47.404;8.566;2023-04-26T06:28:42;96496.09;;;8.11;100.00
39243;BME280;29823;47.404;8.566;2023-04-26T06:31:10;96490.25;;;8.27;100.00
39243;BME280;29823;47.404;8.566;2023-04-26T06:33:38;96492.75;;;8.15;100.00
39243;BME280;29823;47.404;8.566;2023-04-26T06:36:11;96495.59;;;8.27;100.00
39243;BME280;29823;47.404;8.566;2023-04-26T06:38:39;96495.41;;;8.22;100.00
39243;BME280;29823;47.404;8.566;2023-04-26T06:41:07;96494.69;;;8.57;100.00
39243;BME280;29823;47.404;8.566;2023-04-26T06:43:35;96477.16;;;8.25;100.00
39243;BME280;29823;47.404;8.566;2023-04-26T06:46:02;96489.41;;;8.51;100.00
39243;BME280;29823;47.404;8.566;2023-04-26T06:48:31;96499.81;;;8.59;100.00
39243;BME280;29823;47.404;8.566;2023-04-26T06:51:04;96495.69;;;8.81;100.00
39243;BME280;29823;47.404;8.566;2023-04-26T06:53:33;96502.00;;;8.86;100.00
39243;BME280;29823;47.404;8.566;2023-04-26T06:56:01;96492.00;;;9.18;100.00
39243;BME280;29823;47.404;8.566;2023-04-26T06:58:29;96488.38;;;9.12;100.00
39243;BME280;29823;47.404;8.566;2023-04-26T07:00:57;96484.00;;;9.36;100.00
39243;BME280;29823;47.404;8.566;2023-04-26T07:03:24;96488.34;;;9.48;100.00
39243;BME280;29823;47.404;8.566;2023-04-26T07:05:54;96484.91;;;9.59;100.00
39243;BME280;29823;47.404;8.566;2023-04-26T07:08:22;96473.50;;;8.87;100.00
39243;BME280;29823;47.404;8.566;2023-04-26T07:10:51;96486.53;;;9.13;100.00
39243;BME280;29823;47.404;8.566;2023-04-26T07:13:20;96482.16;;;9.00;100.00
39243;BME280;29823;47.404;8.566;2023-04-26T07:15:48;96476.97;;;9.23;100.00
39243;BME280;29823;47.404;8.566;2023-04-26T07:18:17;96480.44;;;8.88;100.00
39243;BME280;29823;47.404;8.566;2023-04-26T07:20:45;96483.94;;;8.70;100.00
39243;BME280;29823;47.404;8.566;2023-04-26T07:23:13;96480.63;;;9.11;100.00
39243;BME280;29823;47.404;8.566;2023-04-26T07:25:41;96488.56;;;9.65;100.00
39243;BME280;29823;47.404;8.566;2023-04-26T07:28:10;96469.72;;;9.89;100.00
39243;BME280;29823;47.404;8.566;2023-04-26T07:30:38;96467.75;;;10.37;100.00
39243;BME280;29823;47.404;8.566;2023-04-26T07:33:05;96469.72;;;10.19;100.00
39243;BME280;29823;47.404;8.566;2023-04-26T07:35:34;96472.38;;;10.30;100.00
39243;BME280;29823;47.404;8.566;2023-04-26T07:38:02;96461.47;;;9.91;100.00
39243;BME280;29823;47.404;8.566;2023-04-26T07:40:30;96473.09;;;9.96;100.00
39243;BME280;29823;47.404;8.566;2023-04-26T07:42:58;96463.00;;;9.39;100.00
39243;BME280;29823;47.404;8.566;2023-04-26T07:45:27;96454.44;;;9.67;100.00
39243;BME280;29823;47.404;8.566;2023-04-26T07:47:55;96476.34;;;9.87;100.00
39243;BME280;29823;47.404;8.566;2023-04-26T07:50:23;96465.44;;;10.52;100.00
39243;BME280;29823;47.404;8.566;2023-04-26T07:52:51;96452.53;;;10.61;100.00
39243;BME280;29823;47.404;8.566;2023-04-26T07:55:18;96455.25;;;11.23;100.00
39243;BME280;29823;47.404;8.566;2023-04-26T07:57:47;96458.31;;;11.04;100.00
39243;BME280;29823;47.404;8.566;2023-04-26T08:00:16;96440.78;;;11.75;100.00
39243;BME280;29823;47.404;8.566;2023-04-26T08:02:45;96452.25;;;11.87;100.00
39243;BME280;29823;47.404;8.566;2023-04-26T08:05:14;96448.47;;;12.33;100.00
39243;BME280;29823;47.404;8.566;2023-04-26T08:07:43;96455.47;;;13.21;100.00
39243;BME280;29823;47.404;8.566;2023-04-26T08:10:11;96443.63;;;12.30;100.00
39243;BME280;29823;47.404;8.566;2023-04-26T08:12:39;96434.22;;;11.55;100.00
39243;BME280;29823;47.404;8.566;2023-04-26T08:15:07;96441.72;;;11.41;100.00
39243;BME280;29823;47.404;8.566;2023-04-26T08:17:35;96437.63;;;11.78;100.00
39243;BME280;29823;47.404;8.566;2023-04-26T08:20:06;96445.03;;;13.03;100.00
39243;BME280;29823;47.404;8.566;2023-04-26T08:22:35;96453.00;;;12.82;100.00
39243;BME280;29823;47.404;8.566;2023-04-26T08:25:04;96449.13;;;12.23;100.00
39243;BME280;29823;47.404;8.566;2023-04-26T08:27:32;96442.03;;;12.83;100.00
39243;BME280;29823;47.404;8.566;2023-04-26T08:30:01;96440.75;;;12.53;100.00
39243;BME280;29823;47.404;8.566;2023-04-26T08:32:29;96433.31;;;11.77;100.00
39243;BME280;29823;47.404;8.566;2023-04-26T08:34:59;96430.56;;;11.89;100.00
39243;BME280;29823;47.404;8.566;2023-04-26T08:37:28;96444.38;;;11.97;100.00
39243;BME280;29823;47.404;8.566;2023-04-26T08:39:56;96451.47;;;11.59;100.00
39243;BME280;29823;47.404;8.566;2023-04-26T08:42:26;96451.06;;;11.55;100.00
39243;BME280;29823;47.404;8.566;2023-04-26T08:44:54;96434.63;;;13.76;100.00
39243;BME280;29823;47.404;8.566;2023-04-26T08:47:27;96449.44;;;14.32;100.00
39243;BME280;29823;47.404;8.566;2023-04-26T08:49:57;96446.66;;;14.48;100.00
39243;BME280;29823;47.404;8.566;2023-04-26T08:52:30;96437.31;;;14.97;94.03
39243;BME280;29823;47.404;8.566;2023-04-26T08:54:59;96437.19;;;14.82;100.00
39243;BME280;29823;47.404;8.566;2023-04-26T08:57:30;96432.44;;;16.47;87.00
39243;BME280;29823;47.404;8.566;2023-04-26T08:59:59;96438.81;;;17.21;78.17
39243;BME280;29823;47.404;8.566;2023-04-26T09:02:31;96412.69;;;18.57;72.15
39243;BME280;29823;47.404;8.566;2023-04-26T09:04:59;96446.34;;;19.84;63.47
39243;BME280;29823;47.404;8.566;2023-04-26T09:07:39;96442.53;;;17.55;66.03
39243;BME280;29823;47.404;8.566;2023-04-26T09:10:09;96444.22;;;17.95;71.74
39243;BME280;29823;47.404;8.566;2023-04-26T09:12:38;96435.13;;;16.52;72.56
39243;BME280;29823;47.404;8.566;2023-04-26T09:15:07;96450.28;;;18.92;65.74
39243;BME280;29823;47.404;8.566;2023-04-26T09:17:36;96438.72;;;18.87;64.49
39243;BME280;29823;47.404;8.566;2023-04-26T09:20:18;96448.72;;;18.14;70.98
39243;BME280;29823;47.404;8.566;2023-04-26T09:22:49;96449.06;;;19.60;59.27
39243;BME280;29823;47.404;8.566;2023-04-26T09:25:18;96450.88;;;18.12;61.78
39243;BME280;29823;47.404;8.566;2023-04-26T09:27:49;96448.81;;;17.41;62.49
39243;BME280;29823;47.404;8.566;2023-04-26T09:30:17;96439.78;;;15.65;70.33
39243;BME280;29823;47.404;8.566;2023-04-26T09:32:49;96436.09;;;17.16;69.29
39243;BME280;29823;47.404;8.566;2023-04-26T09:35:26;96437.81;;;16.87;68.40
39243;BME280;29823;47.404;8.566;2023-04-26T09:37:57;96440.97;;;17.93;63.92
39243;BME280;29823;47.404;8.566;2023-04-26T09:40:34;96418.38;;;16.65;69.18
39243;BME280;29823;47.404;8.566;2023-04-26T09:43:08;96427.78;;;15.31;73.37
39243;BME280;29823;47.404;8.566;2023-04-26T09:45:46;96429.47;;;15.42;78.51
39243;BME280;29823;47.404;8.566;2023-04-26T09:48:17;96432.97;;;16.44;65.33
39243;BME280;29823;47.404;8.566;2023-04-26T09:50:48;96433.47;;;16.31;70.60
39243;BME280;29823;47.404;8.566;2023-04-26T09:53:27;96424.59;;;16.41;74.44
39243;BME280;29823;47.404;8.566;2023-04-26T09:56:04;96432.38;;;16.22;71.26
39243;BME280;29823;47.404;8.566;2023-04-26T09:58:33;96431.28;;;16.23;72.03
39243;BME280;29823;47.404;8.566;2023-04-26T10:01:03;96424.34;;;16.42;69.15
39243;BME280;29823;47.404;8.566;2023-04-26T10:03:33;96423.00;;;17.68;65.88
39243;BME280;29823;47.404;8.566;2023-04-26T10:06:02;96430.63;;;18.05;64.74
39243;BME280;29823;47.404;8.566;2023-04-26T10:08:31;96431.31;;;17.82;65.25
39243;BME280;29823;47.404;8.566;2023-04-26T10:11:00;96429.00;;;18.52;60.60
39243;BME280;29823;47.404;8.566;2023-04-26T10:13:30;96424.44;;;19.33;60.42
39243;BME280;29823;47.404;8.566;2023-04-26T10:15:59;96424.38;;;18.81;62.13
39243;BME280;29823;47.404;8.566;2023-04-26T10:18:28;96429.91;;;19.00;58.91
39243;BME280;29823;47.404;8.566;2023-04-26T10:20:59;96423.41;;;17.90;63.80
39243;BME280;29823;47.404;8.566;2023-04-26T10:23:29;96418.53;;;19.50;59.34
39243;BME280;29823;47.404;8.566;2023-04-26T10:26:00;96418.19;;;19.56;60.60
39243;BME280;29823;47.404;8.566;2023-04-26T10:28:53;96411.72;;;21.00;51.79
39243;BME280;29823;47.404;8.566;2023-04-26T10:34:31;96401.56;;;20.05;52.48
39243;BME280;29823;47.404;8.566;2023-04-26T10:37:06;96398.75;;;20.28;48.27
39243;BME280;29823;47.404;8.566;2023-04-26T10:39:35;96403.03;;;18.75;52.62
39243;BME280;29823;47.404;8.566;2023-04-26T10:42:24;96391.28;;;19.13;51.11
39243;BME280;29823;47.404;8.566;2023-04-26T10:44:53;96391.44;;;18.41;54.61
39243;BME280;29823;47.404;8.566;2023-04-26T10:47:24;96389.81;;;19.25;54.71
39243;BME280;29823;47.404;8.566;2023-04-26T10:50:01;96388.09;;;18.54;54.17
39243;BME280;29823;47.404;8.566;2023-04-26T10:52:32;96384.53;;;18.20;54.69
39243;BME280;29823;47.404;8.566;2023-04-26T10:55:00;96367.41;;;17.37;56.24
39243;BME280;29823;47.404;8.566;2023-04-26T10:57:49;96374.69;;;17.95;54.88
39243;BME280;29823;47.404;8.566;2023-04-26T11:00:29;96372.34;;;17.20;54.78
39243;BME280;29823;47.404;8.566;2023-04-26T11:03:02;96381.09;;;18.76;53.30
39243;BME280;29823;47.404;8.566;2023-04-26T11:05:35;96373.75;;;18.82;53.00
39243;BME280;29823;47.404;8.566;2023-04-26T11:08:05;96364.31;;;18.74;51.32
39243;BME280;29823;47.404;8.566;2023-04-26T11:10:38;96364.00;;;19.04;48.78
39243;BME280;29823;47.404;8.566;2023-04-26T11:13:08;96369.81;;;19.63;47.88
39243;BME280;29823;47.404;8.566;2023-04-26T11:15:36;96363.31;;;19.83;48.55
39243;BME280;29823;47.404;8.566;2023-04-26T11:18:05;96354.94;;;19.98;46.62
39243;BME280;29823;47.404;8.566;2023-04-26T11:20:33;96346.28;;;21.10;45.71
39243;BME280;29823;47.404;8.566;2023-04-26T11:23:02;96352.06;;;19.52;48.36
39243;BME280;29823;47.404;8.566;2023-04-26T11:25:30;96366.56;;;18.67;48.83
39243;BME280;29823;47.404;8.566;2023-04-26T11:27:59;96356.47;;;19.85;46.18
39243;BME280;29823;47.404;8.566;2023-04-26T11:30:29;96354.09;;;19.84;45.84
39243;BME280;29823;47.404;8.566;2023-04-26T11:32:58;96359.59;;;19.97;46.60
39243;BME280;29823;47.404;8.566;2023-04-26T11:35:26;96364.84;;;19.28;49.00
39243;BME280;29823;47.404;8.566;2023-04-26T11:37:57;96359.09;;;19.35;48.19
39243;BME280;29823;47.404;8.566;2023-04-26T11:40:27;96361.22;;;19.09;48.02
39243;BME280;29823;47.404;8.566;2023-04-26T11:42:58;96364.72;;;17.32;48.56
39243;BME280;29823;47.404;8.566;2023-04-26T11:45:26;96349.88;;;17.83;48.20
39243;BME280;29823;47.404;8.566;2023-04-26T11:47:56;96339.97;;;18.07;48.63
39243;BME280;29823;47.404;8.566;2023-04-26T11:50:24;96337.06;;;18.66;48.04
39243;BME280;29823;47.404;8.566;2023-04-26T11:52:54;96344.66;;;18.30;49.47
39243;BME280;29823;47.404;8.566;2023-04-26T11:55:27;96341.44;;;18.62;49.37
39243;BME280;29823;47.404;8.566;2023-04-26T11:57:56;96343.91;;;17.86;50.36
39243;BME280;29823;47.404;8.566;2023-04-26T12:00:25;96351.56;;;17.74;52.33
39243;BME280;29823;47.404;8.566;2023-04-26T12:02:53;96348.28;;;18.16;50.73
39243;BME280;29823;47.404;8.566;2023-04-26T12:05:26;96343.34;;;18.28;50.51
39243;BME280;29823;47.404;8.566;2023-04-26T12:07:58;96349.78;;;16.76;51.06
39243;BME280;29823;47.404;8.566;2023-04-26T12:10:27;96337.59;;;16.89;51.41
39243;BME280;29823;47.404;8.566;2023-04-26T12:12:57;96327.09;;;16.82;54.28
39243;BME280;29823;47.404;8.566;2023-04-26T12:15:30;96348.56;;;17.22;52.18
39243;BME280;29823;47.404;8.566;2023-04-26T12:17:58;96346.50;;;16.89;51.67
39243;BME280;29823;47.404;8.566;2023-04-26T12:20:30;96346.06;;;16.57;51.09
39243;BME280;29823;47.404;8.566;2023-04-26T12:23:03;96350.34;;;15.83;54.07
39243;BME280;29823;47.404;8.566;2023-04-26T12:25:32;96345.47;;;15.80;53.09
39243;BME280;29823;47.404;8.566;2023-04-26T12:28:01;96341.66;;;16.86;50.71
39243;BME280;29823;47.404;8.566;2023-04-26T12:30:31;96345.78;;;16.54;53.35
39243;BME280;29823;47.404;8.566;2023-04-26T12:32:59;96341.72;;;16.61;53.81
39243;BME280;29823;47.404;8.566;2023-04-26T12:35:45;96339.78;;;16.87;52.21
39243;BME280;29823;47.404;8.566;2023-04-26T12:38:13;96336.28;;;16.71;52.63
39243;BME280;29823;47.404;8.566;2023-04-26T12:40:41;96348.06;;;17.10;52.11
39243;BME280;29823;47.404;8.566;2023-04-26T12:43:12;96347.06;;;16.81;51.25
39243;BME280;29823;47.404;8.566;2023-04-26T12:45:41;96339.19;;;17.00;50.34
39243;BME280;29823;47.404;8.566;2023-04-26T12:48:09;96328.75;;;16.73;51.15
39243;BME280;29823;47.404;8.566;2023-04-26T12:50:38;96343.16;;;17.22;49.26
39243;BME280;29823;47.404;8.566;2023-04-26T12:53:07;96322.97;;;17.00;49.36
39243;BME280;29823;47.404;8.566;2023-04-26T12:55:36;96334.63;;;16.90;50.68
39243;BME280;29823;47.404;8.566;2023-04-26T12:58:04;96322.25;;;18.25;46.95
39243;BME280;29823;47.404;8.566;2023-04-26T13:00:32;96324.31;;;18.04;45.66
39243;BME280;29823;47.404;8.566;2023-04-26T13:03:00;96303.53;;;19.69;44.97
39243;BME280;29823;47.404;8.566;2023-04-26T13:05:28;96318.59;;;20.63;43.36
39243;BME280;29823;47.404;8.566;2023-04-26T13:07:57;96318.34;;;19.16;45.97
39243;BME280;29823;47.404;8.566;2023-04-26T13:10:29;96314.59;;;19.36;47.32
39243;BME280;29823;47.404;8.566;2023-04-26T13:12:58;96326.88;;;20.85;43.63
39243;BME280;29823;47.404;8.566;2023-04-26T13:15:27;96323.38;;;21.65;42.99
39243;BME280;29823;47.404;8.566;2023-04-26T13:17:55;96302.47;;;20.98;41.56